createdAt,value
2023-04-25T00:00:09.924Z,1.53
2023-04-25T00:02:44.528Z,1.73
2023-04-25T00:05:13.539Z,1.70
2023-04-25T00:07:43.140Z,1.80
2023-04-25T00:10:13.075Z,1.93
2023-04-25T00:12:42.547Z,2.00
2023-04-25T00:15:13.639Z,1.80
2023-04-25T00:17:41.895Z,1.70
2023-04-25T00:20:11.308Z,1.60
2023-04-25T00:22:39.692Z,1.90
2023-04-25T00:25:09.283Z,1.60
2023-04-25T00:27:38.003Z,1.93
2023-04-25T00:30:07.579Z,1.93
2023-04-25T00:32:37.351Z,1.80
2023-04-25T00:35:07.012Z,1.70
2023-04-25T00:37:35.423Z,1.67
2023-04-25T00:40:03.816Z,2.00
2023-04-25T00:42:33.626Z,1.73
2023-04-25T00:45:06.374Z,1.83
2023-04-25T00:47:39.609Z,2.17
2023-04-25T00:50:09.608Z,2.17
2023-04-25T00:52:38.679Z,2.30
2023-04-25T00:55:10.255Z,2.20
2023-04-25T00:57:39.083Z,2.43
2023-04-25T01:00:10.730Z,2.70
2023-04-25T01:02:40.704Z,2.50
2023-04-25T01:05:09.752Z,2.30
2023-04-25T01:07:38.257Z,2.40
2023-04-25T01:10:08.308Z,2.80
2023-04-25T01:12:36.610Z,2.00
2023-04-25T01:15:05.539Z,2.87
2023-04-25T01:17:34.548Z,2.53
2023-04-25T01:20:06.213Z,3.40
2023-04-25T01:22:36.452Z,3.00
2023-04-25T01:25:05.144Z,3.50
2023-04-25T01:27:34.054Z,3.17
2023-04-25T01:30:02.969Z,3.27
2023-04-25T01:32:39.276Z,2.87
2023-04-25T01:35:10.638Z,3.30
2023-04-25T01:37:40.838Z,3.87
2023-04-25T01:40:11.656Z,3.27
2023-04-25T01:42:43.338Z,3.43
2023-04-25T01:45:12.920Z,3.60
2023-04-25T01:47:42.720Z,3.93
2023-04-25T01:50:43.463Z,4.83
2023-04-25T01:53:15.486Z,4.80
2023-04-25T01:55:46.295Z,5.00
2023-04-25T01:58:17.585Z,4.87
2023-04-25T02:01:06.311Z,4.70
2023-04-25T02:03:42.414Z,5.20
2023-04-25T02:06:19.263Z,5.43
2023-04-25T02:08:50.522Z,4.77
2023-04-25T02:11:19.102Z,5.80
2023-04-25T02:13:55.441Z,5.20
2023-04-25T02:16:36.910Z,6.07
2023-04-25T02:19:05.388Z,5.63
2023-04-25T02:21:36.767Z,4.83
2023-04-25T02:24:08.609Z,5.10
2023-04-25T02:26:37.389Z,4.03
2023-04-25T02:37:57.195Z,4.87
2023-04-25T02:40:27.194Z,4.20
2023-04-25T02:42:56.279Z,5.70
2023-04-25T02:45:24.611Z,7.17
2023-04-25T02:47:52.885Z,6.33
2023-04-25T02:50:22.438Z,6.40
2023-04-25T02:52:50.726Z,6.43
2023-04-25T02:55:27.024Z,4.93
2023-04-25T02:57:57.960Z,4.63
2023-04-25T03:00:38.292Z,3.77
2023-04-25T03:03:06.768Z,4.30
2023-04-25T03:05:35.147Z,5.23
2023-04-25T03:08:04.021Z,5.20
2023-04-25T03:10:34.268Z,4.80
2023-04-25T03:13:08.185Z,4.83
2023-04-25T03:15:37.148Z,5.73
2023-04-25T03:18:06.236Z,5.13
2023-04-25T03:20:34.582Z,5.37
2023-04-25T03:23:03.065Z,6.23
2023-04-25T03:25:31.880Z,5.60
2023-04-25T03:28:00.640Z,6.47
2023-04-25T03:30:30.402Z,5.90
2023-04-25T03:32:58.664Z,5.60
2023-04-25T03:35:27.057Z,5.17
2023-04-25T03:37:56.381Z,4.73
2023-04-25T03:40:30.501Z,4.03
2023-04-25T03:43:21.756Z,3.70
2023-04-25T03:45:57.421Z,3.80
2023-04-25T03:48:27.690Z,4.30
2023-04-25T03:50:57.006Z,3.90
2023-04-25T03:53:26.009Z,4.10
2023-04-25T03:56:23.879Z,3.97
2023-04-25T03:58:59.653Z,3.93
2023-04-25T04:01:31.840Z,5.63
2023-04-25T04:04:00.492Z,5.40
2023-04-25T04:06:29.825Z,5.80
2023-04-25T04:09:12.021Z,6.43
2023-04-25T04:11:41.662Z,6.60
2023-04-25T04:14:11.157Z,6.37
2023-04-25T04:16:44.234Z,6.13
2023-04-25T04:19:12.678Z,7.13
2023-04-25T04:21:45.684Z,6.67
2023-04-25T04:24:14.528Z,6.30
2023-04-25T04:26:53.217Z,5.33
2023-04-25T04:29:32.240Z,6.07
2023-04-25T04:32:07.154Z,7.07
2023-04-25T04:34:36.074Z,6.67
2023-04-25T04:37:05.282Z,10.23
2023-04-25T04:39:33.748Z,8.80
2023-04-25T04:42:20.886Z,6.40
2023-04-25T04:45:10.369Z,6.13
2023-04-25T04:47:58.833Z,6.93
2023-04-25T04:50:50.504Z,7.20
2023-04-25T04:53:45.139Z,7.73
2023-04-25T04:56:32.961Z,7.43
2023-04-25T04:59:25.542Z,8.00
2023-04-25T05:02:12.602Z,6.70
2023-04-25T05:05:00.653Z,9.03
2023-04-25T05:07:39.314Z,8.00
2023-04-25T05:10:24.082Z,8.53
2023-04-25T05:13:10.969Z,8.57
2023-04-25T05:16:06.116Z,7.70
2023-04-25T05:19:00.780Z,6.80
2023-04-25T05:21:47.516Z,7.63
2023-04-25T05:24:34.309Z,7.57
2023-04-25T05:27:22.588Z,8.80
2023-04-25T05:30:18.274Z,8.93
2023-04-25T05:33:05.967Z,8.10
2023-04-25T05:35:34.629Z,8.77
2023-04-25T05:38:04.502Z,8.77
2023-04-25T05:40:52.956Z,8.53
2023-04-25T05:43:39.970Z,6.57
2023-04-25T05:46:27.749Z,7.80
2023-04-25T05:49:16.988Z,7.57
2023-04-25T05:52:05.952Z,8.03
2023-04-25T05:54:53.780Z,7.33
2023-04-25T05:57:23.788Z,7.57
2023-04-25T05:59:52.310Z,6.70
2023-04-25T06:02:23.198Z,6.97
2023-04-25T06:04:53.317Z,6.70
2023-04-25T06:07:24.040Z,7.63
2023-04-25T06:09:54.554Z,8.97
2023-04-25T06:12:22.970Z,8.03
2023-04-25T06:14:53.722Z,9.03
2023-04-25T06:17:22.574Z,7.77
2023-04-25T06:19:52.488Z,8.50
2023-04-25T06:22:20.940Z,8.83
2023-04-25T06:24:49.295Z,8.47
2023-04-25T06:27:19.089Z,8.30
2023-04-25T06:29:48.152Z,7.77
2023-04-25T06:32:16.755Z,8.00
2023-04-25T06:34:45.141Z,7.97
2023-04-25T06:37:13.989Z,7.47
2023-04-25T06:39:43.589Z,6.90
2023-04-25T06:42:14.381Z,6.53
2023-04-25T06:44:49.963Z,6.00
2023-04-25T06:47:20.001Z,5.27
2023-04-25T06:49:48.566Z,6.27
2023-04-25T06:52:19.152Z,5.83
2023-04-25T06:54:48.651Z,6.77
2023-04-25T06:57:40.539Z,5.20
2023-04-25T07:00:35.976Z,5.93
2023-04-25T07:03:04.781Z,5.73
2023-04-25T07:05:34.073Z,5.93
2023-04-25T07:08:02.955Z,5.83
2023-04-25T07:10:31.452Z,5.80
2023-04-25T07:13:02.219Z,5.07
2023-04-25T07:15:30.892Z,4.83
2023-04-25T07:18:02.264Z,4.70
2023-04-25T07:20:32.203Z,4.73
2023-04-25T07:23:01.012Z,5.17
2023-04-25T07:25:30.746Z,5.23
2023-04-25T07:27:59.333Z,5.87
2023-04-25T07:30:28.726Z,4.67
2023-04-25T07:32:57.873Z,4.07
2023-04-25T07:35:28.163Z,3.67
2023-04-25T07:37:56.839Z,4.07
2023-04-25T07:40:26.386Z,4.43
2023-04-25T07:42:59.242Z,4.35
2023-04-25T07:45:37.592Z,2.90
2023-04-25T07:48:07.013Z,2.95
2023-04-25T07:50:39.802Z,2.90
2023-04-25T07:53:08.285Z,2.72
2023-04-25T07:55:45.191Z,2.20
2023-04-25T07:58:22.270Z,2.80
2023-04-25T08:00:54.519Z,2.72
2023-04-25T08:03:49.331Z,2.63
2023-04-25T08:06:26.994Z,2.10
2023-04-25T08:09:24.828Z,2.00
2023-04-25T08:11:54.659Z,1.70
2023-04-25T08:14:30.148Z,1.60
2023-04-25T08:16:58.526Z,1.58
2023-04-25T08:19:27.600Z,1.45
2023-04-25T08:21:57.972Z,1.50
2023-04-25T08:24:33.200Z,1.55
2023-04-25T08:27:01.804Z,1.23
2023-04-25T08:29:30.750Z,1.13
2023-04-25T08:31:59.544Z,1.20
2023-04-25T08:34:33.811Z,1.23
2023-04-25T08:37:07.196Z,1.00
2023-04-25T08:39:57.348Z,1.23
2023-04-25T08:42:42.407Z,1.20
2023-04-25T08:45:11.928Z,1.08
2023-04-25T08:47:42.710Z,1.10
2023-04-25T08:50:11.535Z,1.10
2023-04-25T08:52:46.533Z,1.20
2023-04-25T08:55:15.661Z,1.10
2023-04-25T08:57:45.024Z,1.10
2023-04-25T09:00:15.905Z,1.08
2023-04-25T09:02:46.163Z,1.25
2023-04-25T09:05:16.359Z,1.00
2023-04-25T09:07:48.556Z,1.20
2023-04-25T09:10:18.866Z,1.20
2023-04-25T09:12:47.170Z,1.10
2023-04-25T09:18:12.456Z,1.05
2023-04-25T09:23:20.692Z,1.10
2023-04-25T09:25:50.540Z,1.10
2023-04-25T09:28:25.093Z,1.10
2023-04-25T09:30:58.474Z,1.13
2023-04-25T09:33:36.088Z,1.08
2023-04-25T09:36:07.504Z,1.10
2023-04-25T09:39:04.709Z,0.98
2023-04-25T09:41:40.134Z,1.20
2023-04-25T09:44:08.450Z,1.00
2023-04-25T09:46:39.067Z,1.20
2023-04-25T09:49:12.666Z,1.08
2023-04-25T09:52:02.718Z,1.00
2023-04-25T09:54:38.519Z,1.00
2023-04-25T09:57:19.003Z,1.20
2023-04-25T09:59:49.328Z,1.20
2023-04-25T10:02:20.546Z,0.93
2023-04-25T10:04:53.812Z,1.10
2023-04-25T10:07:32.464Z,1.00
2023-04-25T10:10:05.189Z,1.27
2023-04-25T10:12:35.217Z,1.13
2023-04-25T10:15:06.205Z,1.23
2023-04-25T10:17:35.200Z,1.17
2023-04-25T10:20:05.119Z,1.20
2023-04-25T10:22:37.050Z,1.10
2023-04-25T10:25:09.726Z,1.33
2023-04-25T10:27:38.265Z,1.40
2023-04-25T10:30:11.272Z,1.20
2023-04-25T10:32:39.624Z,1.08
2023-04-25T10:35:16.539Z,1.00
2023-04-25T10:37:59.888Z,1.10
2023-04-25T10:40:29.708Z,1.17
2023-04-25T10:42:58.137Z,1.30
2023-04-25T10:45:26.456Z,1.10
2023-04-25T10:47:57.200Z,1.10
2023-04-25T10:50:40.205Z,0.98
2023-04-25T10:53:17.224Z,1.13
2023-04-25T10:55:59.321Z,1.00
2023-04-25T10:58:28.757Z,1.27
2023-04-25T11:00:58.025Z,1.30
2023-04-25T11:03:26.950Z,1.20
2023-04-25T11:05:58.515Z,1.20
2023-04-25T11:08:49.193Z,1.45
2023-04-25T11:11:22.664Z,1.30
2023-04-25T11:13:53.485Z,1.10
2023-04-25T11:16:28.392Z,1.10
2023-04-25T11:18:59.905Z,1.30
2023-04-25T11:21:28.995Z,1.00
2023-04-25T11:23:58.864Z,1.10
2023-04-25T11:26:28.620Z,1.30
2023-04-25T11:29:01.049Z,1.20
2023-04-25T11:31:29.404Z,1.10
2023-04-25T11:33:59.677Z,1.10
2023-04-25T11:36:28.739Z,1.10
2023-04-25T11:38:57.381Z,1.10
2023-04-25T11:41:26.630Z,1.10
2023-04-25T11:43:56.885Z,1.15
2023-04-25T11:46:25.146Z,1.20
2023-04-25T11:48:53.873Z,1.15
2023-04-25T11:51:22.425Z,1.60
2023-04-25T11:53:51.524Z,1.73
2023-04-25T11:56:19.857Z,1.58
2023-04-25T11:58:59.813Z,1.33
2023-04-25T12:01:32.063Z,1.20
2023-04-25T12:04:14.262Z,1.35
2023-04-25T12:06:46.218Z,1.27
2023-04-25T12:09:15.758Z,1.30
2023-04-25T12:11:44.945Z,1.37
2023-04-25T12:14:15.211Z,1.20
2023-04-25T12:16:44.894Z,1.10
2023-04-25T12:19:16.520Z,1.20
2023-04-25T12:21:58.119Z,2.13
2023-04-25T12:24:29.257Z,5.87
2023-04-25T12:27:02.322Z,3.60
2023-04-25T12:29:48.594Z,2.97
2023-04-25T12:32:34.488Z,1.60
2023-04-25T12:35:02.905Z,3.40
2023-04-25T12:37:32.046Z,1.90
2023-04-25T12:40:00.469Z,4.20
2023-04-25T12:42:28.901Z,2.63
2023-04-25T12:44:57.095Z,1.70
2023-04-25T12:47:25.333Z,0.93
2023-04-25T12:49:54.886Z,1.20
2023-04-25T12:52:23.106Z,1.10
2023-04-25T12:54:51.291Z,1.10
2023-04-25T12:57:19.389Z,1.17
2023-04-25T12:59:47.843Z,0.98
2023-04-25T13:02:16.328Z,0.95
2023-04-25T13:04:44.598Z,0.95
2023-04-25T13:07:14.186Z,1.00
2023-04-25T13:09:42.448Z,1.58
2023-04-25T13:12:10.706Z,1.20
2023-04-25T13:14:39.046Z,0.95
2023-04-25T13:17:07.516Z,1.13
2023-04-25T13:19:35.823Z,1.60
2023-04-25T13:22:05.397Z,1.20
2023-04-25T13:24:35.157Z,1.10
2023-04-25T13:27:04.333Z,1.30
2023-04-25T13:29:32.768Z,1.13
2023-04-25T13:32:01.447Z,1.00
2023-04-25T13:34:30.381Z,1.30
2023-04-25T13:36:58.508Z,1.17
2023-04-25T13:39:27.020Z,1.15
2023-04-25T13:41:57.223Z,0.90
2023-04-25T13:44:25.367Z,1.00
2023-04-25T13:46:54.040Z,0.98
2023-04-25T13:49:24.067Z,1.20
2023-04-25T13:51:52.178Z,1.10
2023-04-25T13:54:20.318Z,1.10
2023-04-25T13:56:49.900Z,1.17
2023-04-25T13:59:19.567Z,1.10
2023-04-25T14:01:47.863Z,1.50
2023-04-25T14:04:16.090Z,1.30
2023-04-25T14:06:44.404Z,0.90
2023-04-25T14:09:13.734Z,1.13
2023-04-25T14:11:42.072Z,1.30
2023-04-25T14:14:10.348Z,0.90
2023-04-25T14:16:40.413Z,1.10
2023-04-25T14:19:08.557Z,1.13
2023-04-25T14:21:36.858Z,0.90
2023-04-25T14:24:06.096Z,0.95
2023-04-25T14:26:36.782Z,0.90
2023-04-25T14:29:05.394Z,1.20
2023-04-25T14:31:33.612Z,0.90
2023-04-25T14:34:04.484Z,1.13
2023-04-25T14:36:33.139Z,1.00
2023-04-25T14:39:02.124Z,1.65
2023-04-25T14:41:30.393Z,1.67
2023-04-25T14:43:58.819Z,1.17
2023-04-25T14:46:27.241Z,1.00
2023-04-25T14:48:56.979Z,1.23
2023-04-25T14:51:27.543Z,1.17
2023-04-25T14:53:56.184Z,0.82
2023-04-25T14:56:24.378Z,1.47
2023-04-25T14:58:52.717Z,1.20
2023-04-25T15:01:23.070Z,1.20
2023-04-25T15:03:53.042Z,1.10
2023-04-25T15:06:21.979Z,0.90
2023-04-25T15:08:51.541Z,1.17
2023-04-25T15:11:21.373Z,1.10
2023-04-25T15:13:49.843Z,1.10
2023-04-25T15:16:18.229Z,1.30
2023-04-25T15:18:46.582Z,1.23
2023-04-25T15:21:14.841Z,0.97
2023-04-25T15:23:43.135Z,1.07
2023-04-25T15:26:13.045Z,0.90
2023-04-25T15:28:42.385Z,0.93
2023-04-25T15:31:10.722Z,0.80
2023-04-25T15:33:39.241Z,1.10
2023-04-25T15:36:08.587Z,1.20
2023-04-25T15:38:37.201Z,1.13
2023-04-25T15:41:07.190Z,1.20
2023-04-25T15:43:38.913Z,1.20
2023-04-25T15:46:07.296Z,1.23
2023-04-25T15:48:36.380Z,1.30
2023-04-25T15:51:04.889Z,1.30
2023-04-25T15:53:33.233Z,0.90
2023-04-25T15:56:02.170Z,1.00
2023-04-25T15:58:30.654Z,1.17
2023-04-25T16:01:00.634Z,0.83
2023-04-25T16:03:29.336Z,1.27
2023-04-25T16:05:58.065Z,1.30
2023-04-25T16:08:26.688Z,1.00
2023-04-25T16:10:55.025Z,1.13
2023-04-25T16:13:23.282Z,1.27
2023-04-25T16:15:51.775Z,0.87
2023-04-25T16:18:21.702Z,1.10
2023-04-25T16:20:49.975Z,0.80
2023-04-25T16:23:18.471Z,0.90
2023-04-25T16:25:47.011Z,0.90
2023-04-25T16:28:15.377Z,0.93
2023-04-25T16:30:43.787Z,0.93
2023-04-25T16:33:12.278Z,0.90
2023-04-25T16:35:41.917Z,0.77
2023-04-25T16:38:10.002Z,1.00
2023-04-25T16:40:38.314Z,0.83
2023-04-25T16:43:06.696Z,0.80
2023-04-25T16:45:35.023Z,1.00
2023-04-25T16:48:03.815Z,0.93
2023-04-25T16:50:32.339Z,0.80
2023-04-25T16:53:02.242Z,0.77
2023-04-25T16:55:31.627Z,1.10
2023-04-25T16:58:00.216Z,1.00
2023-04-25T17:00:28.510Z,0.90
2023-04-25T17:02:56.936Z,0.90
2023-04-25T17:05:26.855Z,0.83
2023-04-25T17:07:55.412Z,0.83
2023-04-25T17:10:27.153Z,0.87
2023-04-25T17:12:55.587Z,0.70
2023-04-25T17:15:24.613Z,0.80
2023-04-25T17:17:53.774Z,0.90
2023-04-25T17:20:22.754Z,0.80
2023-04-25T17:22:51.768Z,0.80
2023-04-25T17:25:20.472Z,0.83
2023-04-25T17:27:50.733Z,0.77
2023-04-25T17:30:20.161Z,0.80
2023-04-25T17:32:48.642Z,0.80
2023-04-25T17:35:17.884Z,1.00
2023-04-25T17:37:47.301Z,0.67
2023-04-25T17:40:18.528Z,1.20
2023-04-25T17:42:47.501Z,0.70
2023-04-25T17:45:18.318Z,0.80
2023-04-25T17:47:47.361Z,0.60
2023-04-25T17:50:16.933Z,1.03
2023-04-25T17:52:51.397Z,0.60
2023-04-25T17:55:21.469Z,0.90
2023-04-25T17:57:50.382Z,1.00
2023-04-25T18:00:21.209Z,0.90
2023-04-25T18:02:52.799Z,0.80
2023-04-25T18:05:21.804Z,0.80
2023-04-25T18:07:51.632Z,0.90
2023-04-25T18:10:20.371Z,0.90
2023-04-25T18:12:50.998Z,1.07
2023-04-25T18:15:22.614Z,0.90
2023-04-25T18:17:51.586Z,0.70
2023-04-25T18:20:22.635Z,0.60
2023-04-25T18:22:51.313Z,0.90
2023-04-25T18:25:20.198Z,1.10
2023-04-25T18:27:50.954Z,0.97
2023-04-25T18:30:22.816Z,1.00
2023-04-25T18:32:53.186Z,1.03
2023-04-25T18:35:23.318Z,1.00
2023-04-25T18:37:52.464Z,0.90
2023-04-25T18:40:21.350Z,1.10
2023-04-25T18:42:52.343Z,1.00
2023-04-25T18:45:23.189Z,0.87
2023-04-25T18:47:54.221Z,1.20
2023-04-25T18:50:26.959Z,1.20
2023-04-25T18:52:57.022Z,1.00
2023-04-25T18:55:26.248Z,0.80
2023-04-25T18:57:54.659Z,0.90
2023-04-25T19:00:25.181Z,1.20
2023-04-25T19:02:56.369Z,1.40
2023-04-25T19:05:26.190Z,1.30
2023-04-25T19:07:55.951Z,1.00
2023-04-25T19:10:25.564Z,1.00
2023-04-25T19:12:55.330Z,0.70
2023-04-25T19:15:26.899Z,1.00
2023-04-25T19:17:56.122Z,0.97
2023-04-25T19:20:25.599Z,1.07
2023-04-25T19:22:55.017Z,0.93
2023-04-25T19:25:25.347Z,1.10
2023-04-25T19:27:55.201Z,1.27
2023-04-25T19:30:26.493Z,1.10
2023-04-25T19:32:57.300Z,1.40
2023-04-25T19:35:31.225Z,1.47
2023-04-25T19:38:00.864Z,1.40
2023-04-25T19:40:30.900Z,1.17
2023-04-25T19:43:00.569Z,1.50
2023-04-25T19:45:31.866Z,1.80
2023-04-25T19:48:03.066Z,2.17
2023-04-25T19:50:32.211Z,1.90
2023-04-25T19:53:01.658Z,2.00
2023-04-25T19:55:30.799Z,1.80
2023-04-25T19:57:59.920Z,1.50
2023-04-25T20:00:28.842Z,1.40
2023-04-25T20:03:02.464Z,1.73
2023-04-25T20:05:32.826Z,1.77
2023-04-25T20:08:01.859Z,1.57
2023-04-25T20:10:32.281Z,1.30
2023-04-25T20:13:01.927Z,1.70
2023-04-25T20:15:33.269Z,1.47
2023-04-25T20:18:03.210Z,1.20
2023-04-25T20:20:31.734Z,1.20
2023-04-25T20:23:00.406Z,1.40
2023-04-25T20:25:29.810Z,1.60
2023-04-25T20:27:59.162Z,1.40
2023-04-25T20:30:28.944Z,1.43
2023-04-25T20:32:57.128Z,1.57
2023-04-25T20:35:27.435Z,1.50
2023-04-25T20:37:55.776Z,1.53
2023-04-25T20:40:24.079Z,2.20
2023-04-25T20:42:52.583Z,2.37
2023-04-25T20:45:21.278Z,3.80
2023-04-25T20:47:50.202Z,2.40
2023-04-25T20:50:18.692Z,2.10
2023-04-25T20:52:49.046Z,1.63
2023-04-25T20:55:17.436Z,1.50
2023-04-25T20:57:45.706Z,2.00
2023-04-25T21:00:18.880Z,1.67
2023-04-25T21:02:47.800Z,1.40
2023-04-25T21:05:16.580Z,1.53
2023-04-25T21:07:45.728Z,3.53
2023-04-25T21:10:16.124Z,2.97
2023-04-25T21:12:48.160Z,3.13
2023-04-25T21:15:18.273Z,2.63
2023-04-25T21:17:47.868Z,2.43
2023-04-25T21:20:17.908Z,2.30
2023-04-25T21:22:51.156Z,1.90
2023-04-25T21:25:31.035Z,1.70
2023-04-25T21:28:02.330Z,1.70
2023-04-25T21:30:31.140Z,1.40
2023-04-25T21:32:59.641Z,1.20
2023-04-25T21:35:27.888Z,1.20
2023-04-25T21:37:56.355Z,1.20
2023-04-25T21:40:26.544Z,1.20
2023-04-25T21:42:54.789Z,1.20
2023-04-25T21:45:23.203Z,1.30
2023-04-25T21:47:51.958Z,1.57
2023-04-25T21:50:20.738Z,1.40
2023-04-25T21:52:49.433Z,1.40
2023-04-25T21:55:17.828Z,1.40
2023-04-25T21:57:47.587Z,1.60
2023-04-25T22:00:24.781Z,1.40
2023-04-25T22:02:53.859Z,1.60
2023-04-25T22:05:22.844Z,1.70
2023-04-25T22:07:52.258Z,1.40
2023-04-25T22:10:21.691Z,1.60
2023-04-25T22:12:51.522Z,1.40
2023-04-25T22:15:23.613Z,1.40
2023-04-25T22:17:52.888Z,1.50
2023-04-25T22:20:24.394Z,1.33
2023-04-25T22:22:53.306Z,1.60
2023-04-25T22:25:22.250Z,1.37
2023-04-25T22:27:52.518Z,1.30
2023-04-25T22:30:20.762Z,1.50
2023-04-25T22:32:48.972Z,1.40
2023-04-25T22:35:17.485Z,1.60
2023-04-25T22:37:46.035Z,1.43
2023-04-25T22:40:15.614Z,1.53
2023-04-25T22:42:44.472Z,1.40
2023-04-25T22:45:14.873Z,1.60
2023-04-25T22:47:43.233Z,1.53
2023-04-25T22:50:16.813Z,1.40
2023-04-25T22:52:45.233Z,1.30
2023-04-25T22:55:13.598Z,1.37
2023-04-25T22:57:42.624Z,1.33
2023-04-25T23:00:16.538Z,1.30
2023-04-25T23:02:47.296Z,1.30
2023-04-25T23:05:15.754Z,1.03
2023-04-25T23:07:45.221Z,1.27
2023-04-25T23:10:14.392Z,1.20
2023-04-25T23:12:42.917Z,1.60
2023-04-25T23:15:13.221Z,1.40
2023-04-25T23:17:42.233Z,1.37
2023-04-25T23:20:13.490Z,1.67
2023-04-25T23:22:42.178Z,1.90
2023-04-25T23:25:11.953Z,1.40
2023-04-25T23:27:40.248Z,1.37
2023-04-25T23:30:10.294Z,1.60
2023-04-25T23:32:39.137Z,1.53
2023-04-25T23:35:08.433Z,1.50
2023-04-25T23:37:38.770Z,1.40
2023-04-25T23:40:10.044Z,1.40
2023-04-25T23:42:38.996Z,1.17
2023-04-25T23:45:09.119Z,1.40
2023-04-25T23:47:37.798Z,1.50
2023-04-25T23:50:08.109Z,1.57
2023-04-25T23:52:38.005Z,1.90
2023-04-25T23:55:07.197Z,1.93
2023-04-25T23:57:35.605Z,2.07
